Time;durP1;ratioP1;P1;durP2;ratioP2;P2;SDS_P1;SDS_P2;PMS_P1;PMS_P2;Temp;Humidity;BMP_temperature;BMP_pressure;BME280_temperature;BME280_humidity;BME280_pressure;Samples;Min_cycle;Max_cycle;Signal;HPM_P1;HPM_P2
2023/12/28 00:01:44;;;;;;;7.05;2.58;;;8.10;99.90;;;;;;4928739;29;20044;-82
2023/12/28 00:04:10;;;;;;;4.13;2.10;;;8.50;99.90;;;;;;4950902;29;20040;-82
2023/12/28 00:06:37;;;;;;;4.88;2.50;;;8.10;99.90;;;;;;4956434;29;20044;-83
2023/12/28 00:09:03;;;;;;;7.15;2.60;;;8.30;99.90;;;;;;4948602;29;20056;-82
2023/12/28 00:11:30;;;;;;;4.85;2.25;;;8.20;99.90;;;;;;4952403;29;20048;-83
2023/12/28 00:13:57;;;;;;;5.43;2.38;;;8.20;99.90;;;;;;4950024;29;20040;-83
2023/12/28 00:16:23;;;;;;;4.82;2.60;;;8.30;99.90;;;;;;4943339;29;20070;-83
2023/12/28 00:18:50;;;;;;;5.30;2.70;;;8.60;99.90;;;;;;4949175;29;20044;-82
2023/12/28 00:21:17;;;;;;;6.47;2.38;;;8.30;99.90;;;;;;4937261;29;20103;-82
2023/12/28 00:23:44;;;;;;;4.75;2.58;;;8.40;99.90;;;;;;4939638;29;20095;-83
2023/12/28 00:26:10;;;;;;;7.07;2.60;;;8.60;99.90;;;;;;4959396;29;20050;-83
2023/12/28 00:28:37;;;;;;;4.00;2.53;;;8.40;99.90;;;;;;4953728;29;20412;-83
2023/12/28 00:31:03;;;;;;;5.15;2.70;;;8.40;99.90;;;;;;4957141;29;20036;-83
2023/12/28 00:33:30;;;;;;;6.10;2.53;;;8.40;99.90;;;;;;4944538;29;20086;-82
2023/12/28 00:35:57;;;;;;;6.80;2.45;;;8.50;99.90;;;;;;4952119;29;20698;-83
2023/12/28 00:38:24;;;;;;;5.20;2.47;;;8.50;99.90;;;;;;4949638;29;20035;-82
2023/12/28 00:40:51;;;;;;;5.53;2.95;;;8.50;99.90;;;;;;4939342;29;20175;-81
2023/12/28 00:43:17;;;;;;;6.50;3.00;;;8.80;99.90;;;;;;4948571;29;20040;-81
2023/12/28 00:45:44;;;;;;;7.63;3.13;;;8.70;99.90;;;;;;4945747;29;20044;-81
2023/12/28 00:48:10;;;;;;;5.43;2.80;;;9.70;99.90;;;;;;4949353;29;20044;-81
2023/12/28 00:50:37;;;;;;;5.13;3.00;;;8.70;99.90;;;;;;4952017;29;20054;-81
2023/12/28 00:53:04;;;;;;;7.38;2.72;;;8.70;99.90;;;;;;4947920;29;20119;-81
2023/12/28 00:55:30;;;;;;;6.03;2.85;;;8.70;99.90;;;;;;4952223;29;20036;-81
2023/12/28 00:57:57;;;;;;;5.03;2.72;;;8.70;99.90;;;;;;4951193;29;20055;-81
2023/12/28 01:00:23;;;;;;;6.18;2.85;;;8.70;99.90;;;;;;4952391;29;20047;-81
2023/12/28 01:02:51;;;;;;;6.30;2.88;;;8.80;99.90;;;;;;4954950;29;20106;-81
2023/12/28 01:05:17;;;;;;;7.60;3.13;;;8.80;99.90;;;;;;4952190;29;20051;-81
2023/12/28 01:07:44;;;;;;;7.07;2.95;;;8.70;99.90;;;;;;4953849;29;20525;-82
2023/12/28 01:10:11;;;;;;;6.32;2.75;;;8.70;99.90;;;;;;4956057;29;20449;-81
2023/12/28 01:12:37;;;;;;;6.10;2.90;;;8.70;99.90;;;;;;4944046;29;20040;-81
2023/12/28 01:15:04;;;;;;;7.15;2.90;;;8.80;99.90;;;;;;4926942;29;20036;-81
2023/12/28 01:17:31;;;;;;;8.23;2.83;;;8.80;99.90;;;;;;4941121;29;20048;-81
2023/12/28 01:19:58;;;;;;;6.78;2.85;;;8.80;99.90;;;;;;4935733;29;20047;-81
2023/12/28 01:22:24;;;;;;;9.00;2.92;;;8.70;99.90;;;;;;4939221;29;20039;-81
2023/12/28 01:24:51;;;;;;;5.95;2.63;;;8.80;99.90;;;;;;4960182;29;20136;-81
2023/12/28 01:27:18;;;;;;;6.45;2.78;;;8.70;99.90;;;;;;4953374;29;20764;-81
2023/12/28 01:29:44;;;;;;;5.68;2.80;;;8.70;99.90;;;;;;4947430;29;20042;-81
2023/12/28 01:32:11;;;;;;;8.85;3.03;;;8.70;99.90;;;;;;4927061;29;20050;-81
2023/12/28 01:34:39;;;;;;;7.65;2.47;;;8.70;99.90;;;;;;4944140;29;20107;-81
2023/12/28 01:37:07;;;;;;;8.25;2.70;;;8.70;99.90;;;;;;4950595;29;20407;-81
2023/12/28 01:39:34;;;;;;;8.00;3.30;;;8.70;99.90;;;;;;4939420;29;20043;-81
2023/12/28 01:42:00;;;;;;;11.02;2.80;;;9.20;99.90;;;;;;4935761;29;20119;-81
2023/12/28 01:44:27;;;;;;;10.43;3.20;;;8.70;99.90;;;;;;4926244;29;20048;-81
2023/12/28 01:46:54;;;;;;;7.75;2.60;;;8.70;99.90;;;;;;4933671;29;20043;-81
2023/12/28 01:49:21;;;;;;;7.85;3.15;;;8.50;99.90;;;;;;4940630;29;20493;-81
2023/12/28 01:51:48;;;;;;;6.95;2.60;;;8.70;99.90;;;;;;4938345;29;20039;-81
2023/12/28 01:54:16;;;;;;;8.18;3.10;;;9.10;99.90;;;;;;4937923;29;20043;-81
2023/12/28 01:56:44;;;;;;;6.22;2.90;;;8.60;99.90;;;;;;4932228;29;20458;-81
2023/12/28 01:59:11;;;;;;;6.38;2.60;;;9.30;99.90;;;;;;4931091;29;20040;-81
2023/12/28 02:01:38;;;;;;;9.32;2.90;;;8.60;99.90;;;;;;4954852;29;20039;-81
2023/12/28 02:04:06;;;;;;;6.60;2.80;;;8.60;99.90;;;;;;4962004;29;20109;-81
2023/12/28 02:06:32;;;;;;;6.15;3.05;;;8.50;99.90;;;;;;4952651;29;20047;-81
2023/12/28 02:08:59;;;;;;;11.82;3.15;;;8.50;99.90;;;;;;4961161;29;20051;-81
2023/12/28 02:11:26;;;;;;;11.40;2.85;;;9.00;99.90;;;;;;4948864;29;20044;-81
2023/12/28 02:13:52;;;;;;;9.20;3.00;;;8.40;99.90;;;;;;4926241;29;20036;-81
2023/12/28 02:16:41;;;;;;;7.82;2.92;;;8.90;99.90;;;;;;4940118;29;20200;-81
2023/12/28 02:19:24;;;;;;;7.70;2.95;;;8.40;99.90;;;;;;4932035;29;20052;-81
2023/12/28 02:21:52;;;;;;;7.95;3.10;;;8.30;99.90;;;;;;4937426;29;20718;-81
2023/12/28 02:24:18;;;;;;;11.10;2.92;;;8.30;99.90;;;;;;4938323;29;20040;-81
2023/12/28 02:26:45;;;;;;;5.65;2.95;;;8.30;99.90;;;;;;4937719;29;20457;-81
2023/12/28 02:29:11;;;;;;;7.50;2.90;;;8.20;99.90;;;;;;4928105;29;20040;-81
2023/12/28 02:32:02;;;;;;;8.85;3.15;;;8.50;99.90;;;;;;4937414;29;20057;-81
2023/12/28 02:34:37;;;;;;;9.15;3.30;;;8.20;99.90;;;;;;4929625;29;20047;-81
2023/12/28 02:37:05;;;;;;;8.32;2.67;;;8.90;99.90;;;;;;4953898;29;20413;-81
2023/12/28 02:39:33;;;;;;;7.00;3.03;;;8.30;99.90;;;;;;4954159;29;20143;-81
2023/12/28 02:41:59;;;;;;;10.45;3.13;;;8.20;99.90;;;;;;4919111;29;20044;-81
2023/12/28 02:44:26;;;;;;;9.90;2.90;;;8.20;99.90;;;;;;4947229;29;20432;-81
2023/12/28 02:46:53;;;;;;;8.35;2.97;;;8.20;99.90;;;;;;4924894;29;20040;-81
2023/12/28 02:49:19;;;;;;;9.70;2.53;;;8.80;99.90;;;;;;4940899;29;20039;-81
2023/12/28 02:51:47;;;;;;;8.70;2.88;;;8.20;99.90;;;;;;4941185;29;20047;-81
2023/12/28 02:54:13;;;;;;;10.60;2.88;;;8.30;99.90;;;;;;4934779;29;20047;-82
2023/12/28 02:56:41;;;;;;;7.47;2.63;;;8.20;99.90;;;;;;4936239;29;20040;-82
2023/12/28 02:59:07;;;;;;;8.60;2.58;;;8.20;99.90;;;;;;4928371;29;20131;-82
2023/12/28 03:01:34;;;;;;;8.73;2.72;;;8.60;99.90;;;;;;4950017;29;20126;-82
2023/12/28 03:04:01;;;;;;;7.35;2.80;;;8.60;99.90;;;;;;4945267;29;20119;-82
2023/12/28 03:06:27;;;;;;;12.30;3.08;;;8.20;99.90;;;;;;4938955;29;20044;-82
2023/12/28 03:08:54;;;;;;;8.85;2.40;;;8.70;99.90;;;;;;4951049;29;20059;-82
2023/12/28 03:11:20;;;;;;;9.15;3.58;;;8.40;99.90;;;;;;4953513;29;20044;-81
2023/12/28 03:13:48;;;;;;;10.50;2.83;;;8.60;99.90;;;;;;4949660;29;20386;-81
2023/12/28 03:16:14;;;;;;;9.68;2.70;;;8.20;99.90;;;;;;4953441;29;20043;-82
2023/12/28 03:18:41;;;;;;;6.75;2.75;;;8.20;99.90;;;;;;4953141;29;20132;-82
2023/12/28 03:21:07;;;;;;;7.60;2.67;;;8.60;99.90;;;;;;4957009;29;20098;-82
2023/12/28 03:23:34;;;;;;;8.68;2.85;;;8.20;99.90;;;;;;4952773;29;20130;-81
2023/12/28 03:26:01;;;;;;;7.35;2.80;;;8.20;99.90;;;;;;4965681;29;20051;-82
2023/12/28 03:28:28;;;;;;;11.60;2.85;;;8.20;99.90;;;;;;4963655;29;20036;-82
2023/12/28 03:30:54;;;;;;;9.93;2.60;;;8.80;99.90;;;;;;4945692;29;20068;-81
2023/12/28 03:33:21;;;;;;;6.88;2.67;;;8.40;99.90;;;;;;4950458;29;20126;-82
2023/12/28 03:35:47;;;;;;;9.52;2.80;;;8.30;99.90;;;;;;4945011;29;20199;-82
2023/12/28 03:38:14;;;;;;;5.72;2.50;;;8.40;99.90;;;;;;4936389;29;20133;-82
2023/12/28 03:40:41;;;;;;;8.85;2.80;;;8.30;99.90;;;;;;4944799;29;20048;-81
2023/12/28 03:43:07;;;;;;;8.32;2.90;;;8.30;99.90;;;;;;4946164;29;20051;-82
2023/12/28 03:45:34;;;;;;;9.77;2.45;;;8.30;99.90;;;;;;4955541;29;20257;-82
2023/12/28 03:48:01;;;;;;;3.55;2.10;;;8.40;99.90;;;;;;4980889;29;20079;-82
2023/12/28 03:50:27;;;;;;;7.03;2.80;;;8.40;99.90;;;;;;4952840;29;20126;-81
2023/12/28 03:52:54;;;;;;;5.90;2.40;;;8.40;99.90;;;;;;4951091;29;20043;-81
2023/12/28 03:55:21;;;;;;;7.20;2.53;;;8.40;99.90;;;;;;4938771;29;20347;-82
2023/12/28 03:57:47;;;;;;;7.50;2.63;;;8.40;99.90;;;;;;4959836;29;20056;-82
2023/12/28 04:00:14;;;;;;;7.50;2.70;;;9.20;99.90;;;;;;4941365;29;20406;-81
2023/12/28 04:02:41;;;;;;;11.07;2.60;;;8.50;99.90;;;;;;4949738;29;20153;-81
2023/12/28 04:05:08;;;;;;;11.10;2.70;;;9.00;99.90;;;;;;4949409;29;20123;-82
2023/12/28 04:07:34;;;;;;;8.00;2.53;;;8.60;99.90;;;;;;4956240;29;20394;-82
2023/12/28 04:10:01;;;;;;;4.43;2.30;;;9.20;99.90;;;;;;4949342;29;20047;-82
2023/12/28 04:12:28;;;;;;;9.30;2.58;;;9.30;99.90;;;;;;4951878;29;20504;-82
2023/12/28 04:14:54;;;;;;;6.63;2.40;;;8.70;99.90;;;;;;4951717;29;20469;-82
2023/12/28 04:17:21;;;;;;;11.30;2.65;;;8.70;99.90;;;;;;4950486;29;20055;-82
2023/12/28 04:19:48;;;;;;;6.82;2.35;;;8.70;99.90;;;;;;4946330;29;20103;-81
2023/12/28 04:22:14;;;;;;;14.70;2.75;;;9.00;99.90;;;;;;4957342;29;20039;-82
2023/12/28 04:24:41;;;;;;;11.35;2.47;;;8.80;99.90;;;;;;4950312;29;20489;-82
2023/12/28 04:27:07;;;;;;;14.95;2.85;;;8.80;99.90;;;;;;4941839;29;20058;-82
2023/12/28 04:29:35;;;;;;;9.90;2.25;;;8.90;99.90;;;;;;4955692;29;20442;-82
2023/12/28 04:32:02;;;;;;;10.23;2.30;;;9.20;99.90;;;;;;4952685;29;20043;-82
2023/12/28 04:34:28;;;;;;;6.18;2.05;;;9.00;99.90;;;;;;4938176;29;20560;-81
2023/12/28 04:36:55;;;;;;;9.75;2.38;;;9.10;99.90;;;;;;4968488;29;20493;-81
2023/12/28 04:39:22;;;;;;;7.03;2.30;;;9.10;99.90;;;;;;4952346;29;20482;-82
2023/12/28 04:41:49;;;;;;;6.45;2.35;;;9.10;99.90;;;;;;4968079;29;20048;-81
2023/12/28 04:44:15;;;;;;;10.88;1.92;;;9.60;99.90;;;;;;4951916;29;20048;-81
2023/12/28 04:46:44;;;;;;;12.68;2.40;;;9.20;99.90;;;;;;4952405;29;20553;-82
2023/12/28 04:49:12;;;;;;;8.27;2.28;;;9.10;99.90;;;;;;4945636;29;20051;-82
2023/12/28 04:51:45;;;;;;;5.75;2.00;;;9.10;99.90;;;;;;4952332;29;20050;-82
2023/12/28 04:54:11;;;;;;;12.73;2.30;;;9.20;99.90;;;;;;4966957;29;20087;-82
2023/12/28 04:56:38;;;;;;;7.55;2.03;;;9.20;99.90;;;;;;4949018;29;20458;-82
2023/12/28 04:59:05;;;;;;;14.98;2.47;;;9.40;99.90;;;;;;4954664;29;20039;-82
2023/12/28 05:01:32;;;;;;;6.65;1.75;;;9.40;99.90;;;;;;4955808;29;20039;-82
2023/12/28 05:03:59;;;;;;;6.90;1.85;;;9.40;99.90;;;;;;4952097;29;20087;-82
2023/12/28 05:06:28;;;;;;;8.90;1.98;;;9.30;99.90;;;;;;4950368;29;20040;-82
2023/12/28 05:08:55;;;;;;;10.52;2.55;;;9.40;99.90;;;;;;4964236;29;20060;-81
2023/12/28 05:11:21;;;;;;;14.50;2.55;;;9.40;99.90;;;;;;4955656;29;20058;-82
2023/12/28 05:13:48;;;;;;;7.38;1.92;;;9.50;99.90;;;;;;4943712;29;20047;-81
2023/12/28 05:16:14;;;;;;;8.07;1.95;;;9.50;99.90;;;;;;4958303;29;20509;-82
2023/12/28 05:18:41;;;;;;;6.22;1.88;;;9.50;99.90;;;;;;4955722;29;20124;-81
2023/12/28 05:21:07;;;;;;;8.75;2.17;;;9.60;99.90;;;;;;4971643;29;20043;-82
2023/12/28 05:23:34;;;;;;;12.77;2.13;;;9.50;99.90;;;;;;4968323;29;20047;-82
2023/12/28 05:26:01;;;;;;;10.70;2.30;;;9.60;99.90;;;;;;4955098;29;20050;-82
2023/12/28 05:28:27;;;;;;;12.77;2.15;;;9.70;99.90;;;;;;4955595;29;20842;-82
2023/12/28 05:30:54;;;;;;;10.13;2.00;;;9.60;99.90;;;;;;4955468;29;20040;-81
2023/12/28 05:33:21;;;;;;;6.75;1.75;;;9.60;99.90;;;;;;4953172;29;20401;-82
2023/12/28 05:35:47;;;;;;;7.72;1.88;;;9.70;99.90;;;;;;4951075;29;20043;-82
2023/12/28 05:38:14;;;;;;;10.30;2.42;;;9.70;99.90;;;;;;4970795;29;20492;-82
2023/12/28 05:40:41;;;;;;;14.13;2.92;;;10.30;99.90;;;;;;4954979;29;20048;-81
2023/12/28 05:43:07;;;;;;;12.25;2.00;;;9.70;99.90;;;;;;4952382;29;20136;-82
2023/12/28 05:45:34;;;;;;;8.60;1.98;;;9.80;99.90;;;;;;4957622;29;20086;-82
2023/12/28 05:48:00;;;;;;;7.40;1.95;;;9.90;99.90;;;;;;4951320;29;20082;-82
2023/12/28 05:50:27;;;;;;;7.20;2.22;;;10.00;99.90;;;;;;4936352;29;20397;-81
2023/12/28 05:52:54;;;;;;;12.75;2.30;;;10.00;99.90;;;;;;4962945;29;20032;-81
2023/12/28 05:55:21;;;;;;;16.20;2.10;;;10.10;99.90;;;;;;4960436;29;20099;-82
2023/12/28 05:57:48;;;;;;;7.90;1.90;;;10.10;99.90;;;;;;4954922;29;20056;-81
2023/12/28 06:00:16;;;;;;;8.10;1.75;;;10.10;99.90;;;;;;4954771;29;20040;-82
2023/12/28 06:02:42;;;;;;;14.60;2.25;;;10.10;99.90;;;;;;4954588;29;20497;-81
2023/12/28 06:05:09;;;;;;;19.90;2.40;;;10.50;99.90;;;;;;4954406;29;20035;-81
2023/12/28 06:07:36;;;;;;;11.00;2.40;;;10.30;99.90;;;;;;4942070;29;20561;-82
2023/12/28 06:10:02;;;;;;;12.40;2.97;;;10.20;99.90;;;;;;4954345;29;20070;-81
2023/12/28 06:12:29;;;;;;;12.02;2.13;;;10.30;99.90;;;;;;4970610;29;20114;-81
2023/12/28 06:14:56;;;;;;;11.52;2.10;;;10.30;99.90;;;;;;4946826;29;20032;-82
2023/12/28 06:17:22;;;;;;;10.82;2.42;;;10.60;99.90;;;;;;4952211;29;20126;-81
2023/12/28 06:19:49;;;;;;;10.65;2.05;;;10.30;99.90;;;;;;4960337;29;20055;-81
2023/12/28 06:22:16;;;;;;;11.93;2.38;;;10.30;99.90;;;;;;4954767;29;20151;-82
2023/12/28 06:24:43;;;;;;;11.40;1.90;;;10.30;99.90;;;;;;4945123;29;20119;-81
2023/12/28 06:27:09;;;;;;;20.48;2.85;;;10.30;99.90;;;;;;4947895;29;20405;-81
2023/12/28 06:29:36;;;;;;;10.90;2.10;;;10.70;99.90;;;;;;4951038;29;20040;-82
2023/12/28 06:32:03;;;;;;;15.73;2.28;;;10.40;99.90;;;;;;4948629;29;20036;-81
2023/12/28 06:34:30;;;;;;;15.80;3.83;;;10.30;99.90;;;;;;4956887;29;20112;-82
2023/12/28 06:36:56;;;;;;;8.15;1.92;;;10.90;99.90;;;;;;4952236;29;20035;-82
2023/12/28 06:39:23;;;;;;;16.67;2.33;;;10.40;99.90;;;;;;4953873;29;20040;-82
2023/12/28 06:41:49;;;;;;;12.13;2.53;;;10.40;99.90;;;;;;4948824;29;20092;-82
2023/12/28 06:44:16;;;;;;;14.13;2.78;;;10.90;99.90;;;;;;4952124;29;20054;-81
2023/12/28 06:46:43;;;;;;;11.77;2.20;;;10.40;99.90;;;;;;4953646;29;20086;-82
2023/12/28 06:49:09;;;;;;;14.57;2.08;;;10.60;99.90;;;;;;4943614;29;20044;-82
2023/12/28 06:51:36;;;;;;;12.75;2.60;;;10.40;99.90;;;;;;4963214;29;20068;-82
2023/12/28 06:54:03;;;;;;;11.25;2.22;;;10.40;99.90;;;;;;4951522;29;20039;-81
2023/12/28 06:56:29;;;;;;;16.27;1.85;;;10.40;99.90;;;;;;4941517;29;20042;-81
2023/12/28 06:58:56;;;;;;;11.73;2.70;;;10.40;99.90;;;;;;4953830;29;20040;-82
2023/12/28 07:01:23;;;;;;;20.60;2.80;;;10.40;99.90;;;;;;4953932;29;20039;-81
2023/12/28 07:03:49;;;;;;;14.90;2.47;;;10.50;99.90;;;;;;4953168;29;20413;-82
2023/12/28 07:06:16;;;;;;;14.25;2.08;;;10.50;99.90;;;;;;4938782;29;20122;-82
2023/12/28 07:08:42;;;;;;;10.15;2.00;;;10.50;99.90;;;;;;4945766;29;20063;-82
2023/12/28 07:11:12;;;;;;;13.35;2.25;;;10.50;99.90;;;;;;4949498;29;20080;-82
2023/12/28 07:13:39;;;;;;;11.13;2.00;;;10.10;99.90;;;;;;4951996;29;20043;-82
2023/12/28 07:16:07;;;;;;;10.15;2.10;;;10.50;99.90;;;;;;4952796;29;20413;-82
2023/12/28 07:18:34;;;;;;;17.90;2.17;;;10.70;99.90;;;;;;4953323;29;20058;-82
2023/12/28 07:21:01;;;;;;;9.32;1.85;;;10.60;99.90;;;;;;4940776;29;20481;-82
2023/12/28 07:23:28;;;;;;;10.50;2.10;;;10.60;99.90;;;;;;4958863;29;20044;-82
2023/12/28 07:25:54;;;;;;;16.38;2.47;;;10.60;99.90;;;;;;4951346;29;20131;-82
2023/12/28 07:28:21;;;;;;;10.20;1.85;;;10.60;99.90;;;;;;4945498;29;20557;-81
2023/12/28 07:30:47;;;;;;;12.38;2.40;;;10.60;99.90;;;;;;4951765;29;20039;-82
2023/12/28 07:33:14;;;;;;;9.93;1.83;;;10.50;99.90;;;;;;4942838;29;20111;-82
2023/12/28 07:35:41;;;;;;;11.85;1.95;;;10.50;99.90;;;;;;4942078;29;20413;-82
2023/12/28 07:38:07;;;;;;;11.95;2.42;;;10.50;99.90;;;;;;4946929;29;20052;-82
2023/12/28 07:40:34;;;;;;;12.57;2.03;;;10.50;99.90;;;;;;4951765;29;20044;-82
2023/12/28 07:43:01;;;;;;;14.13;2.42;;;10.50;99.90;;;;;;4950587;29;20047;-81
2023/12/28 07:45:27;;;;;;;16.13;2.53;;;10.50;99.90;;;;;;4941348;29;20047;-82
2023/12/28 07:47:54;;;;;;;10.68;1.88;;;10.50;99.90;;;;;;4935454;29;20032;-82
2023/12/28 07:50:21;;;;;;;19.50;3.17;;;10.60;99.90;;;;;;4968040;29;20040;-82
2023/12/28 07:52:48;;;;;;;11.68;2.55;;;10.80;99.90;;;;;;4951516;29;20047;-82
2023/12/28 07:55:15;;;;;;;15.00;2.90;;;10.70;99.90;;;;;;4945447;29;20118;-82
2023/12/28 07:57:42;;;;;;;12.73;1.98;;;10.60;99.90;;;;;;4952494;29;20131;-81
2023/12/28 08:00:09;;;;;;;18.52;2.17;;;10.60;99.90;;;;;;4952590;29;20127;-83
2023/12/28 08:02:36;;;;;;;19.08;2.65;;;10.50;99.90;;;;;;4948467;29;20035;-81
2023/12/28 08:05:04;;;;;;;14.20;2.33;;;10.50;99.90;;;;;;4933752;29;20187;-81
2023/12/28 08:07:31;;;;;;;21.15;3.17;;;10.40;99.90;;;;;;4945169;29;20035;-81
2023/12/28 08:09:57;;;;;;;17.70;2.88;;;10.40;99.90;;;;;;4945424;29;20056;-81
2023/12/28 08:12:27;;;;;;;15.23;2.67;;;10.30;99.90;;;;;;4941578;29;20052;-82
2023/12/28 08:14:55;;;;;;;16.15;2.45;;;10.30;99.90;;;;;;4950658;29;20084;-82
2023/12/28 08:17:22;;;;;;;18.52;3.20;;;10.30;99.90;;;;;;4940963;29;20134;-82
2023/12/28 08:19:51;;;;;;;11.52;2.10;;;10.30;99.90;;;;;;4951575;29;20501;-82
2023/12/28 08:22:18;;;;;;;17.33;2.55;;;9.70;99.90;;;;;;4950235;29;20048;-82
2023/12/28 08:24:45;;;;;;;15.50;2.72;;;10.40;99.90;;;;;;4959026;29;20050;-82
2023/12/28 08:27:12;;;;;;;10.77;2.80;;;10.30;99.90;;;;;;4965987;29;20127;-82
2023/12/28 08:29:41;;;;;;;14.63;2.00;;;10.30;99.90;;;;;;4953396;29;20048;-82
2023/12/28 08:32:08;;;;;;;18.83;2.72;;;10.30;99.90;;;;;;4950007;29;20044;-81
2023/12/28 08:34:35;;;;;;;19.65;2.65;;;10.40;99.90;;;;;;4948301;29;20489;-82
2023/12/28 08:37:02;;;;;;;17.00;2.65;;;10.30;99.90;;;;;;4966031;29;20043;-82
2023/12/28 08:39:29;;;;;;;13.75;2.45;;;10.40;99.90;;;;;;4953226;29;20071;-81
2023/12/28 08:41:56;;;;;;;15.43;2.70;;;10.40;99.90;;;;;;4960053;29;20095;-82
2023/12/28 08:44:22;;;;;;;15.60;2.97;;;10.40;99.90;;;;;;4966627;29;20561;-80
2023/12/28 08:46:49;;;;;;;15.45;2.55;;;10.40;99.90;;;;;;4964142;29;20048;-85
2023/12/28 08:49:16;;;;;;;18.75;2.97;;;10.40;99.90;;;;;;4962177;29;20437;-85
2023/12/28 08:51:42;;;;;;;13.30;3.22;;;10.40;99.90;;;;;;4955986;29;20040;-84
2023/12/28 08:54:09;;;;;;;19.35;3.03;;;10.40;99.90;;;;;;4949426;29;20036;-84
2023/12/28 08:56:36;;;;;;;15.68;3.22;;;10.40;99.90;;;;;;4951593;29;20511;-84
2023/12/28 08:59:03;;;;;;;18.05;3.17;;;10.40;99.90;;;;;;4955647;29;20049;-85
2023/12/28 09:01:30;;;;;;;21.10;3.95;;;10.40;99.90;;;;;;4957120;29;20146;-84
2023/12/28 09:03:57;;;;;;;15.70;3.03;;;10.40;99.90;;;;;;4942822;29;20092;-84
2023/12/28 09:06:24;;;;;;;18.90;3.45;;;10.40;99.90;;;;;;4952367;29;20062;-84
2023/12/28 09:08:52;;;;;;;17.88;2.85;;;10.50;99.90;;;;;;4971254;29;20055;-84
2023/12/28 09:11:19;;;;;;;12.73;3.70;;;10.50;99.90;;;;;;4947162;29;20044;-85
2023/12/28 09:13:46;;;;;;;14.30;3.05;;;10.50;99.90;;;;;;4961839;29;20036;-84
2023/12/28 09:16:14;;;;;;;20.55;3.75;;;11.40;99.90;;;;;;4950131;29;20478;-85
2023/12/28 09:18:42;;;;;;;24.10;3.60;;;10.50;99.90;;;;;;4952624;29;20050;-85
2023/12/28 09:21:09;;;;;;;18.00;3.13;;;10.50;99.90;;;;;;4970928;29;20583;-84
2023/12/28 09:23:36;;;;;;;24.52;3.72;;;10.60;99.90;;;;;;4955383;29;20039;-84
2023/12/28 09:26:05;;;;;;;14.98;2.35;;;10.60;99.90;;;;;;4947090;29;20884;-84
2023/12/28 09:28:32;;;;;;;19.08;3.42;;;10.90;99.90;;;;;;4948008;29;20044;-85
2023/12/28 09:31:00;;;;;;;12.70;2.55;;;10.50;99.90;;;;;;4941129;29;20083;-84
2023/12/28 09:33:27;;;;;;;18.48;2.92;;;10.50;99.90;;;;;;4935824;29;20067;-85
2023/12/28 09:35:53;;;;;;;15.77;2.65;;;10.50;99.90;;;;;;4966141;29;20074;-85
2023/12/28 09:38:21;;;;;;;25.88;3.90;;;10.60;99.90;;;;;;4947160;29;20490;-83
2023/12/28 09:40:53;;;;;;;20.33;3.33;;;10.60;99.90;;;;;;4950980;29;20114;-83
2023/12/28 09:43:26;;;;;;;17.35;3.20;;;10.70;99.90;;;;;;4953941;29;20468;-84
2023/12/28 09:45:56;;;;;;;22.13;3.40;;;10.60;99.90;;;;;;4941372;29;20092;-84
2023/12/28 09:48:23;;;;;;;17.42;3.17;;;10.70;99.90;;;;;;4962013;29;20477;-83
2023/12/28 09:50:54;;;;;;;15.68;3.35;;;10.80;99.90;;;;;;4951504;29;20081;-83
2023/12/28 09:53:24;;;;;;;20.25;3.05;;;10.70;99.90;;;;;;4949624;29;20037;-83
2023/12/28 09:55:52;;;;;;;16.52;3.67;;;10.80;99.90;;;;;;4953997;29;20064;-83
2023/12/28 09:58:20;;;;;;;15.45;3.08;;;10.80;99.90;;;;;;4966117;29;20050;-83
2023/12/28 10:00:48;;;;;;;17.25;3.58;;;10.70;99.90;;;;;;4954483;29;20039;-83
2023/12/28 10:03:16;;;;;;;21.98;2.97;;;10.80;99.90;;;;;;4950465;29;20454;-83
2023/12/28 10:05:45;;;;;;;17.48;2.75;;;10.80;99.90;;;;;;4945032;29;20055;-84
2023/12/28 10:08:15;;;;;;;17.58;3.13;;;10.80;99.90;;;;;;4942247;29;20532;-84
2023/12/28 10:10:50;;;;;;;17.98;3.15;;;10.80;99.90;;;;;;4920232;29;20051;-83
2023/12/28 10:13:17;;;;;;;14.52;2.58;;;10.70;99.90;;;;;;4934822;29;20048;-84
2023/12/28 10:15:44;;;;;;;15.13;2.95;;;10.70;99.90;;;;;;4929929;29;20047;-84
2023/12/28 10:18:11;;;;;;;14.88;2.53;;;10.80;99.90;;;;;;4938544;29;20508;-84
2023/12/28 10:20:38;;;;;;;20.52;3.45;;;10.90;99.90;;;;;;4929507;29;20104;-84
2023/12/28 10:23:05;;;;;;;17.88;2.83;;;10.80;99.90;;;;;;4928234;29;20470;-84
2023/12/28 10:25:32;;;;;;;10.88;2.22;;;10.90;99.90;;;;;;4938290;29;20074;-84
2023/12/28 10:28:05;;;;;;;20.75;4.07;;;10.90;99.90;;;;;;4927212;29;20044;-84
2023/12/28 10:30:32;;;;;;;17.48;2.58;;;10.90;99.90;;;;;;4942528;29;20039;-84
2023/12/28 10:32:59;;;;;;;16.30;2.83;;;10.90;99.90;;;;;;4956586;29;20047;-84
2023/12/28 10:35:25;;;;;;;16.08;2.83;;;11.00;99.90;;;;;;4934850;29;20044;-84
2023/12/28 10:37:53;;;;;;;20.45;3.47;;;10.90;99.90;;;;;;4938097;29;20035;-84
2023/12/28 10:40:21;;;;;;;18.42;3.35;;;11.00;99.90;;;;;;4941248;29;20103;-84
2023/12/28 10:43:04;;;;;;;22.48;3.45;;;10.90;99.90;;;;;;4950970;29;20768;-84
2023/12/28 10:45:33;;;;;;;17.10;2.53;;;11.00;99.90;;;;;;4942846;29;20051;-84
2023/12/28 10:48:13;;;;;;;16.15;2.55;;;11.00;99.90;;;;;;4949066;29;20040;-84
2023/12/28 10:50:50;;;;;;;19.95;3.25;;;11.40;99.90;;;;;;4957683;29;20075;-84
2023/12/28 10:53:38;;;;;;;16.25;2.85;;;11.10;99.90;;;;;;4936246;29;20409;-84
2023/12/28 10:56:29;;;;;;;21.30;2.58;;;11.00;99.90;;;;;;4919154;29;20040;-83
2023/12/28 10:59:20;;;;;;;16.77;2.95;;;11.00;99.90;;;;;;4962695;29;20044;-84
2023/12/28 11:01:49;;;;;;;12.35;2.45;;;11.10;99.90;;;;;;4947377;29;20040;-83
2023/12/28 11:04:25;;;;;;;16.27;3.13;;;11.00;99.90;;;;;;4929739;29;20103;-84
2023/12/28 11:06:52;;;;;;;;;;;11.10;99.90;;;;;;4945208;29;20043;-84
2023/12/28 11:09:20;;;;;;;14.95;2.70;;;11.10;99.90;;;;;;4948998;29;19929;-84
2023/12/28 11:11:49;;;;;;;18.77;2.90;;;11.10;99.90;;;;;;4950340;29;20040;-84
2023/12/28 11:14:17;;;;;;;16.60;2.80;;;11.10;99.90;;;;;;4953223;29;20039;-84
2023/12/28 11:16:44;;;;;;;19.70;3.50;;;11.50;99.90;;;;;;4941656;29;20490;-84
2023/12/28 11:19:12;;;;;;;21.90;3.47;;;11.10;99.90;;;;;;4934988;29;20055;-84
2023/12/28 11:21:39;;;;;;;22.20;3.40;;;11.10;99.90;;;;;;4964123;29;20040;-84
2023/12/28 11:24:07;;;;;;;22.55;3.35;;;11.00;99.90;;;;;;4940889;29;20054;-83
2023/12/28 11:26:33;;;;;;;19.75;2.63;;;11.10;99.90;;;;;;4951455;29;20123;-83
2023/12/28 11:29:04;;;;;;;20.95;3.25;;;11.10;99.90;;;;;;4946314;29;20151;-84
2023/12/28 11:31:34;;;;;;;19.65;2.80;;;11.10;99.90;;;;;;4937285;29;20122;-83
2023/12/28 11:34:03;;;;;;;18.80;3.22;;;11.50;99.90;;;;;;4943113;29;20042;-83
2023/12/28 11:36:40;;;;;;;15.05;3.38;;;11.10;99.90;;;;;;4952228;29;20039;-84
2023/12/28 11:39:07;;;;;;;19.80;4.15;;;11.00;99.90;;;;;;4946365;29;20114;-84
2023/12/28 11:41:36;;;;;;;18.98;3.72;;;11.00;99.90;;;;;;4956950;29;20122;-84
2023/12/28 11:44:06;;;;;;;19.67;3.25;;;11.00;99.90;;;;;;4951789;29;20035;-83
2023/12/28 11:46:36;;;;;;;15.13;3.30;;;10.90;99.90;;;;;;4948407;29;20044;-84
2023/12/28 11:49:07;;;;;;;15.20;3.58;;;11.00;99.90;;;;;;4952212;29;20042;-84
2023/12/28 11:51:40;;;;;;;24.30;2.72;;;10.90;99.90;;;;;;4968632;29;20114;-84
2023/12/28 11:54:07;;;;;;;23.70;3.35;;;10.90;99.90;;;;;;4952505;29;20039;-84
2023/12/28 11:56:34;;;;;;;16.35;2.83;;;10.80;99.90;;;;;;4947195;29;20407;-84
2023/12/28 11:59:00;;;;;;;19.77;3.10;;;10.80;99.90;;;;;;4958967;29;20044;-84
2023/12/28 12:01:27;;;;;;;22.08;3.08;;;11.20;99.90;;;;;;4960838;29;20106;-84
2023/12/28 12:03:54;;;;;;;19.77;3.38;;;10.70;99.90;;;;;;4946767;29;20505;-85
2023/12/28 12:06:20;;;;;;;16.50;2.67;;;10.70;99.90;;;;;;4966953;29;20139;-85
2023/12/28 12:08:47;;;;;;;18.73;2.88;;;10.60;99.90;;;;;;4941557;29;20115;-84
2023/12/28 12:11:14;;;;;;;14.50;2.58;;;10.70;99.90;;;;;;4950271;29;20118;-84
2023/12/28 12:13:40;;;;;;;14.20;2.83;;;10.70;99.90;;;;;;4949415;29;20051;-84
2023/12/28 12:16:07;;;;;;;17.25;3.03;;;10.80;99.90;;;;;;4944824;29;20044;-84
2023/12/28 12:18:35;;;;;;;14.98;2.28;;;10.80;99.90;;;;;;4943784;29;20044;-84
2023/12/28 12:21:02;;;;;;;17.52;2.80;;;10.80;99.90;;;;;;4933597;29;20048;-84
2023/12/28 12:23:29;;;;;;;14.90;3.30;;;10.80;99.90;;;;;;4940833;29;20043;-84
2023/12/28 12:25:56;;;;;;;18.42;4.50;;;10.80;99.90;;;;;;4942310;29;20416;-85
2023/12/28 12:28:22;;;;;;;13.98;3.08;;;10.80;99.90;;;;;;4951333;29;20048;-84
2023/12/28 12:30:56;;;;;;;24.88;3.95;;;10.80;99.90;;;;;;4944550;29;20131;-84
2023/12/28 12:33:25;;;;;;;15.82;2.95;;;10.80;99.90;;;;;;4956511;29;20410;-85
2023/12/28 12:35:52;;;;;;;19.35;3.50;;;10.80;99.90;;;;;;4961219;29;20050;-85
2023/12/28 12:38:19;;;;;;;17.33;3.53;;;10.80;99.90;;;;;;4952435;29;20126;-84
2023/12/28 12:40:45;;;;;;;19.13;3.08;;;10.80;99.90;;;;;;4964927;29;20071;-84
2023/12/28 12:43:12;;;;;;;18.70;3.08;;;11.00;99.90;;;;;;4961525;29;20126;-84
2023/12/28 12:45:39;;;;;;;13.70;2.30;;;10.80;99.90;;;;;;4956509;29;20054;-84
2023/12/28 12:48:06;;;;;;;16.50;2.30;;;10.80;99.90;;;;;;4950106;29;20047;-84